Time;durP1;ratioP1;P1;durP2;ratioP2;P2;SDS_P1;SDS_P2;PMS_P1;PMS_P2;Temp;Humidity;BMP_temperature;BMP_pressure;BME280_temperature;BME280_humidity;BME280_pressure;Samples;Min_cycle;Max_cycle;Signal;HPM_P1;HPM_P2
2023/07/20 00:00:17;;;;;;;2.53;1.40;;;28.50;64.30;;;;;;5086168;28;20244;-82
2023/07/20 00:03:16;;;;;;;2.63;1.45;;;28.50;64.70;;;;;;5073844;28;20949;-82
2023/07/20 00:05:45;;;;;;;3.00;0.98;;;28.50;65.20;;;;;;5082531;28;20218;-82
2023/07/20 00:08:13;;;;;;;1.70;0.98;;;28.50;65.50;;;;;;5077863;28;20217;-83
2023/07/20 00:10:42;;;;;;;1.23;0.77;;;28.50;65.50;;;;;;5087715;28;20190;-82
2023/07/20 00:13:11;;;;;;;1.98;1.35;;;28.50;65.20;;;;;;5089663;28;20712;-83
2023/07/20 00:15:39;;;;;;;1.15;0.85;;;28.50;65.20;;;;;;5087311;28;20216;-83
2023/07/20 00:18:08;;;;;;;1.42;0.98;;;28.50;65.00;;;;;;5088918;28;20198;-81
2023/07/20 00:20:38;;;;;;;1.23;1.13;;;28.50;65.50;;;;;;5090603;28;20189;-82
2023/07/20 00:23:06;;;;;;;0.85;0.85;;;28.40;67.30;;;;;;5076939;28;20200;-82
2023/07/20 00:25:36;;;;;;;2.45;1.20;;;28.40;67.00;;;;;;5076964;28;20190;-82
2023/07/20 00:28:05;;;;;;;2.08;1.70;;;28.40;67.40;;;;;;5075142;28;20275;-82
2023/07/20 00:30:34;;;;;;;1.17;1.10;;;28.40;67.70;;;;;;5086432;28;20190;-81
2023/07/20 00:33:02;;;;;;;1.20;1.05;;;28.40;67.40;;;;;;5089378;28;20285;-82
2023/07/20 00:35:31;;;;;;;1.13;0.85;;;28.40;67.60;;;;;;5081176;28;20206;-84
2023/07/20 00:38:01;;;;;;;0.70;0.70;;;28.30;67.70;;;;;;5089742;28;20187;-84
2023/07/20 00:40:29;;;;;;;5.45;1.23;;;28.40;68.30;;;;;;5090798;28;20193;-82
2023/07/20 00:42:57;;;;;;;0.85;0.73;;;28.40;68.20;;;;;;5092567;28;20650;-83
2023/07/20 00:45:29;;;;;;;1.90;1.20;;;28.30;68.30;;;;;;5077710;28;20190;-83
2023/07/20 00:47:58;;;;;;;0.80;0.77;;;28.30;68.70;;;;;;5081816;28;20694;-83
2023/07/20 00:50:27;;;;;;;3.25;1.67;;;28.30;69.40;;;;;;5088084;28;20202;-82
2023/07/20 00:52:56;;;;;;;1.00;0.98;;;28.30;71.10;;;;;;5095592;28;20679;-82
2023/07/20 00:55:27;;;;;;;1.30;1.20;;;28.20;71.90;;;;;;5089265;28;20206;-84
2023/07/20 00:57:56;;;;;;;3.90;1.30;;;28.10;73.40;;;;;;5081852;28;20186;-82
2023/07/20 01:00:25;;;;;;;0.70;0.70;;;28.10;73.20;;;;;;5083221;28;20220;-83
2023/07/20 01:02:55;;;;;;;0.75;0.75;;;28.10;74.10;;;;;;5085072;28;20193;-82
2023/07/20 01:05:34;;;;;;;1.40;1.30;;;28.00;75.70;;;;;;5093003;28;20227;-82
2023/07/20 01:08:12;;;;;;;2.97;1.90;;;28.00;75.70;;;;;;5086166;28;20210;-82
2023/07/20 01:10:50;;;;;;;2.33;1.10;;;27.90;75.40;;;;;;5075729;28;20188;-82
2023/07/20 01:13:20;;;;;;;1.10;1.00;;;27.80;77.00;;;;;;5088702;28;20198;-83
2023/07/20 01:15:51;;;;;;;1.00;0.80;;;27.70;78.80;;;;;;5086433;28;20198;-83
2023/07/20 01:18:20;;;;;;;1.77;0.70;;;27.70;78.10;;;;;;5085543;28;20213;-82
2023/07/20 01:20:49;;;;;;;1.33;0.80;;;27.70;78.00;;;;;;5091136;27;20249;-82
2023/07/20 01:23:41;;;;;;;1.95;1.50;;;27.70;78.90;;;;;;5081646;28;20631;-83
2023/07/20 01:26:22;;;;;;;2.13;1.92;;;27.60;78.40;;;;;;5082987;28;20208;-83
2023/07/20 01:29:24;;;;;;;1.25;1.13;;;27.60;79.30;;;;;;5076687;28;20215;-83
2023/07/20 01:31:54;;;;;;;2.50;1.13;;;27.60;80.00;;;;;;5080578;28;20194;-83
2023/07/20 01:34:24;;;;;;;3.30;1.80;;;27.50;80.70;;;;;;5074637;28;20545;-83
2023/07/20 01:36:54;;;;;;;2.67;1.88;;;27.50;79.70;;;;;;5081702;28;20189;-82
2023/07/20 01:39:22;;;;;;;1.38;0.63;;;27.50;79.80;;;;;;5078867;28;20195;-84
2023/07/20 01:41:51;;;;;;;1.08;0.75;;;27.50;79.10;;;;;;5083152;28;20284;-82
2023/07/20 01:44:20;;;;;;;0.63;0.63;;;27.40;78.70;;;;;;5078594;28;20714;-83
2023/07/20 01:46:48;;;;;;;1.23;0.98;;;27.40;78.50;;;;;;5092865;28;20197;-83
2023/07/20 01:49:18;;;;;;;2.25;0.85;;;27.40;78.30;;;;;;5084779;28;20226;-83
2023/07/20 01:51:46;;;;;;;1.00;0.70;;;27.40;78.40;;;;;;5083608;28;20242;-83
2023/07/20 01:54:15;;;;;;;0.35;0.35;;;27.40;78.30;;;;;;5081511;28;20186;-83
2023/07/20 01:56:43;;;;;;;1.52;1.17;;;27.40;78.60;;;;;;5073300;28;20190;-83
2023/07/20 01:59:12;;;;;;;0.73;0.60;;;27.30;78.50;;;;;;5085951;28;20193;-83
2023/07/20 02:01:40;;;;;;;1.92;0.85;;;27.30;78.10;;;;;;5084853;28;20206;-83
2023/07/20 02:04:10;;;;;;;2.03;1.08;;;27.30;78.20;;;;;;5087415;28;20352;-83
2023/07/20 02:06:40;;;;;;;1.02;0.63;;;27.30;78.50;;;;;;5083595;28;20230;-83
2023/07/20 02:09:09;;;;;;;0.70;0.70;;;27.30;79.10;;;;;;5075483;28;20221;-83
2023/07/20 02:11:38;;;;;;;1.30;1.20;;;27.20;79.00;;;;;;5089134;28;20217;-83
2023/07/20 02:14:06;;;;;;;2.20;1.40;;;27.20;79.20;;;;;;5082286;28;20224;-84
2023/07/20 02:16:35;;;;;;;0.50;0.40;;;27.20;79.50;;;;;;5095002;28;20650;-83
2023/07/20 02:19:06;;;;;;;1.35;0.70;;;27.10;79.50;;;;;;5081675;28;20193;-82
2023/07/20 02:21:35;;;;;;;0.68;0.68;;;27.10;79.90;;;;;;5080413;28;20190;-83
2023/07/20 02:24:06;;;;;;;1.23;0.55;;;27.10;80.70;;;;;;5072977;28;20206;-84
2023/07/20 02:26:35;;;;;;;3.17;1.10;;;27.00;82.40;;;;;;5073325;28;20193;-82
2023/07/20 02:29:04;;;;;;;2.10;1.05;;;27.00;82.40;;;;;;5081470;28;20258;-83
2023/07/20 02:31:33;;;;;;;0.70;0.70;;;27.00;83.20;;;;;;5082155;28;20191;-83
2023/07/20 02:34:01;;;;;;;1.15;1.05;;;26.90;83.60;;;;;;5089302;28;20197;-82
2023/07/20 02:36:29;;;;;;;1.08;0.70;;;26.80;84.10;;;;;;5081932;28;20198;-84
2023/07/20 02:38:58;;;;;;;2.10;1.23;;;26.80;85.00;;;;;;5085571;28;20244;-82
2023/07/20 02:41:28;;;;;;;1.38;1.00;;;26.80;87.20;;;;;;5078573;28;20225;-82
2023/07/20 02:43:57;;;;;;;0.68;0.68;;;26.70;87.90;;;;;;5076838;28;20190;-83
2023/07/20 02:46:26;;;;;;;0.55;0.55;;;26.70;87.70;;;;;;5095468;28;20203;-83
2023/07/20 02:48:55;;;;;;;2.15;1.25;;;26.60;87.80;;;;;;5086640;28;20217;-83
2023/07/20 02:51:24;;;;;;;6.70;1.85;;;26.60;87.60;;;;;;5089644;28;20197;-82
2023/07/20 02:53:52;;;;;;;1.13;0.52;;;26.50;87.70;;;;;;5087862;28;20194;-83
2023/07/20 02:56:22;;;;;;;4.30;1.77;;;26.50;87.50;;;;;;5081297;28;20200;-83
2023/07/20 02:58:53;;;;;;;1.48;1.08;;;26.50;87.20;;;;;;5077221;28;20624;-83
2023/07/20 03:01:22;;;;;;;0.50;0.50;;;26.50;87.30;;;;;;5077207;28;21861;-83
2023/07/20 03:03:51;;;;;;;0.73;0.73;;;26.40;87.10;;;;;;5074320;28;20198;-82
2023/07/20 03:06:20;;;;;;;0.98;0.77;;;26.40;87.10;;;;;;5100828;28;20526;-82
2023/07/20 03:08:51;;;;;;;2.17;0.75;;;26.40;87.60;;;;;;5090435;27;20233;-84
2023/07/20 03:11:21;;;;;;;2.22;1.33;;;26.30;88.80;;;;;;5084345;28;20204;-84
2023/07/20 03:13:50;;;;;;;1.13;0.73;;;26.30;89.10;;;;;;5084532;28;20201;-82
2023/07/20 03:16:21;;;;;;;0.75;0.73;;;26.30;88.90;;;;;;5090516;28;20197;-83
2023/07/20 03:18:50;;;;;;;1.08;0.90;;;26.20;88.90;;;;;;5078978;28;20221;-83
2023/07/20 03:21:18;;;;;;;1.02;0.82;;;26.20;89.10;;;;;;5078875;28;20572;-83
2023/07/20 03:23:47;;;;;;;2.00;0.70;;;26.20;88.70;;;;;;5086107;28;20200;-83
2023/07/20 03:26:16;;;;;;;2.08;1.10;;;26.30;88.60;;;;;;5073790;28;20205;-83
2023/07/20 03:28:44;;;;;;;1.65;1.23;;;26.20;90.40;;;;;;5087708;28;20218;-83
2023/07/20 03:31:12;;;;;;;1.95;1.05;;;26.20;90.50;;;;;;5076851;28;20194;-82
2023/07/20 03:33:42;;;;;;;1.52;1.30;;;26.20;90.00;;;;;;5082056;28;20187;-83
2023/07/20 03:36:11;;;;;;;1.75;0.93;;;26.20;90.70;;;;;;5086818;28;20259;-85
2023/07/20 03:38:39;;;;;;;1.27;0.75;;;26.10;90.70;;;;;;5078714;28;20190;-82
2023/07/20 03:41:07;;;;;;;1.10;0.63;;;26.10;90.50;;;;;;5077401;28;20249;-82
2023/07/20 03:43:36;;;;;;;1.40;1.15;;;26.10;90.20;;;;;;5089904;28;20194;-84
2023/07/20 03:46:06;;;;;;;1.15;1.00;;;26.10;90.30;;;;;;5078312;28;20190;-84
2023/07/20 03:48:35;;;;;;;2.63;1.52;;;26.10;90.40;;;;;;5076870;28;20186;-83
2023/07/20 03:51:06;;;;;;;0.57;0.57;;;26.20;90.20;;;;;;5075773;28;20201;-82
2023/07/20 03:53:36;;;;;;;4.00;0.90;;;26.20;89.70;;;;;;5089126;28;20875;-83
2023/07/20 03:56:05;;;;;;;0.52;0.50;;;26.20;89.90;;;;;;5081138;28;20573;-82
2023/07/20 03:58:33;;;;;;;1.17;1.08;;;26.20;90.20;;;;;;5092689;28;20641;-84
2023/07/20 04:01:02;;;;;;;0.50;0.50;;;26.20;90.20;;;;;;5081816;28;20194;-84
2023/07/20 04:03:30;;;;;;;3.03;1.35;;;26.20;90.10;;;;;;5083127;28;20200;-82
2023/07/20 04:05:59;;;;;;;2.42;0.98;;;26.20;90.00;;;;;;5084170;28;20222;-82
2023/07/20 04:08:28;;;;;;;1.05;1.00;;;26.30;90.20;;;;;;5082466;28;20280;-83
2023/07/20 04:10:57;;;;;;;1.58;0.90;;;26.20;90.00;;;;;;5076755;28;20217;-82
2023/07/20 04:13:25;;;;;;;0.90;0.90;;;26.30;90.20;;;;;;5078511;28;20832;-83
2023/07/20 04:15:54;;;;;;;1.00;0.85;;;26.30;90.00;;;;;;5080068;28;20190;-82
2023/07/20 04:18:23;;;;;;;0.60;0.60;;;26.30;90.00;;;;;;5079801;28;20201;-82
2023/07/20 04:20:51;;;;;;;0.60;0.50;;;26.40;89.80;;;;;;5080828;28;20657;-82
2023/07/20 04:23:20;;;;;;;3.70;2.13;;;26.40;89.70;;;;;;5073719;28;20251;-82
2023/07/20 04:25:50;;;;;;;0.80;0.80;;;26.30;89.60;;;;;;5074267;28;20201;-84
2023/07/20 04:28:18;;;;;;;1.00;0.90;;;26.40;89.50;;;;;;5074334;28;20195;-83
2023/07/20 04:30:50;;;;;;;1.05;0.88;;;26.40;89.40;;;;;;5076780;28;20225;-82
2023/07/20 04:33:18;;;;;;;6.28;3.17;;;26.40;89.10;;;;;;5071463;28;20618;-82
2023/07/20 04:35:52;;;;;;;0.63;0.63;;;26.40;88.90;;;;;;5078639;28;20672;-82
2023/07/20 04:38:21;;;;;;;0.77;0.77;;;26.40;88.60;;;;;;5074286;28;20204;-82
2023/07/20 04:40:51;;;;;;;1.60;1.02;;;26.40;88.50;;;;;;5083636;28;20720;-83
2023/07/20 04:43:20;;;;;;;1.27;1.08;;;26.40;88.10;;;;;;5085344;28;20605;-84
2023/07/20 04:45:50;;;;;;;0.80;0.65;;;26.50;88.00;;;;;;5077381;28;20641;-84
2023/07/20 04:48:19;;;;;;;0.63;0.63;;;26.50;87.80;;;;;;5078478;28;22910;-84
2023/07/20 04:50:47;;;;;;;1.20;1.10;;;26.50;87.70;;;;;;5079983;28;20577;-84
2023/07/20 04:53:16;;;;;;;0.30;0.30;;;26.60;87.40;;;;;;5080495;28;20216;-84
2023/07/20 04:55:51;;;;;;;1.25;0.82;;;26.60;87.30;;;;;;5076002;28;20194;-82
2023/07/20 04:58:23;;;;;;;1.58;0.35;;;26.60;87.90;;;;;;5086448;28;21852;-82
2023/07/20 05:00:52;;;;;;;0.65;0.57;;;26.60;87.40;;;;;;5077705;28;20285;-83
2023/07/20 05:03:20;;;;;;;1.95;0.82;;;26.60;87.30;;;;;;5074220;28;20195;-82
2023/07/20 05:05:49;;;;;;;1.23;1.13;;;26.70;87.20;;;;;;5087604;28;20582;-83
2023/07/20 05:08:18;;;;;;;5.57;0.70;;;26.70;86.80;;;;;;5079360;28;20273;-82
2023/07/20 05:10:46;;;;;;;0.77;0.70;;;26.70;86.90;;;;;;5076680;28;20219;-82
2023/07/20 05:13:15;;;;;;;0.22;0.22;;;26.70;87.00;;;;;;5084027;28;20197;-84
2023/07/20 05:15:45;;;;;;;1.40;0.85;;;26.70;86.60;;;;;;5084989;28;20442;-83
2023/07/20 05:18:13;;;;;;;1.20;0.77;;;26.70;86.30;;;;;;5077609;28;20193;-83
2023/07/20 05:20:45;;;;;;;5.57;1.45;;;26.70;86.30;;;;;;5091533;28;20930;-83
2023/07/20 05:23:14;;;;;;;1.42;1.30;;;26.70;86.20;;;;;;5071875;28;20256;-83
2023/07/20 05:25:43;;;;;;;0.65;0.55;;;26.70;86.20;;;;;;5078874;28;20311;-83
2023/07/20 05:28:11;;;;;;;0.52;0.52;;;26.70;86.30;;;;;;5082341;28;20194;-82
2023/07/20 05:30:41;;;;;;;2.63;0.65;;;26.70;86.00;;;;;;5080487;28;20218;-83
2023/07/20 05:33:11;;;;;;;2.67;1.35;;;26.70;85.70;;;;;;5079555;28;20201;-83
2023/07/20 05:35:39;;;;;;;1.55;1.10;;;26.70;86.00;;;;;;5091269;28;20282;-81
2023/07/20 05:38:08;;;;;;;1.50;1.10;;;26.80;85.80;;;;;;5083311;28;20293;-83
2023/07/20 05:40:38;;;;;;;1.00;0.65;;;26.80;85.70;;;;;;5081457;28;20197;-84
2023/07/20 05:43:07;;;;;;;0.52;0.52;;;26.80;85.80;;;;;;5086818;28;20196;-83
2023/07/20 05:45:36;;;;;;;2.50;0.85;;;26.80;85.80;;;;;;5081781;28;20204;-83
2023/07/20 05:48:06;;;;;;;0.52;0.52;;;26.70;85.70;;;;;;5085922;28;20200;-82
2023/07/20 05:50:36;;;;;;;0.40;0.40;;;26.80;85.90;;;;;;5084084;28;20215;-83
2023/07/20 05:53:04;;;;;;;0.47;0.45;;;26.80;85.60;;;;;;5086674;28;20194;-83
2023/07/20 05:55:33;;;;;;;1.05;0.93;;;26.90;85.30;;;;;;5077833;28;20847;-82
2023/07/20 05:58:01;;;;;;;6.07;1.10;;;27.00;85.80;;;;;;5087444;28;20200;-82
2023/07/20 06:00:30;;;;;;;0.30;0.30;;;27.00;85.80;;;;;;5074071;28;20191;-82
2023/07/20 06:02:58;;;;;;;1.80;0.50;;;27.00;85.90;;;;;;5080732;28;20194;-85
2023/07/20 06:05:27;;;;;;;1.63;0.73;;;26.90;86.10;;;;;;5086723;28;20218;-82
2023/07/20 06:08:00;;;;;;;0.30;0.30;;;27.00;86.00;;;;;;5083110;28;20197;-84
2023/07/20 06:10:28;;;;;;;0.77;0.77;;;27.10;86.10;;;;;;5084208;28;20217;-82
2023/07/20 06:12:57;;;;;;;8.68;0.75;;;27.20;86.10;;;;;;5079086;28;20251;-87
2023/07/20 06:15:27;;;;;;;1.85;0.98;;;27.20;86.30;;;;;;5083673;28;20190;-85
2023/07/20 06:17:57;;;;;;;0.50;0.50;;;27.20;85.90;;;;;;5080734;28;20198;-91
2023/07/20 06:20:29;;;;;;;0.93;0.80;;;27.30;85.80;;;;;;5086834;28;20293;-85
2023/07/20 06:23:00;;;;;;;0.88;0.68;;;27.30;85.50;;;;;;5085348;28;20201;-88
2023/07/20 06:25:28;;;;;;;0.73;0.70;;;27.40;85.00;;;;;;5081715;28;20187;-86
2023/07/20 06:27:57;;;;;;;0.52;0.52;;;27.40;84.60;;;;;;5089771;28;20196;-87
2023/07/20 06:30:29;;;;;;;3.00;0.70;;;27.40;84.40;;;;;;5085850;28;20213;-88
2023/07/20 06:32:57;;;;;;;3.40;0.77;;;27.50;84.20;;;;;;5086283;28;20279;-87
2023/07/20 06:35:26;;;;;;;2.17;0.60;;;27.50;84.10;;;;;;5083414;28;20194;-86
2023/07/20 06:37:54;;;;;;;3.05;0.73;;;27.50;84.50;;;;;;5075951;28;20186;-86
2023/07/20 06:40:24;;;;;;;0.40;0.40;;;27.50;84.40;;;;;;5086473;28;20194;-86
2023/07/20 06:42:55;;;;;;;0.70;0.55;;;27.50;84.60;;;;;;5087500;28;20254;-86
2023/07/20 06:45:27;;;;;;;0.70;0.70;;;27.60;84.40;;;;;;5093240;28;20190;-85
2023/07/20 06:47:55;;;;;;;1.33;0.88;;;27.60;84.10;;;;;;5081558;28;20197;-83
2023/07/20 06:50:24;;;;;;;0.98;0.88;;;27.70;84.20;;;;;;5078572;28;20236;-86
2023/07/20 06:52:55;;;;;;;1.92;1.75;;;27.70;84.00;;;;;;5087562;28;20193;-84
2023/07/20 06:55:27;;;;;;;1.45;1.35;;;27.70;84.10;;;;;;5072160;28;20243;-86
2023/07/20 06:57:58;;;;;;;5.78;1.30;;;27.80;83.80;;;;;;5082691;28;20202;-84
2023/07/20 07:00:26;;;;;;;1.15;0.80;;;27.80;83.80;;;;;;5083825;28;20600;-87
2023/07/20 07:02:55;;;;;;;0.73;0.73;;;27.90;83.60;;;;;;5080796;28;20252;-82
2023/07/20 07:05:24;;;;;;;0.80;0.73;;;27.90;83.40;;;;;;5083288;28;20253;-83
2023/07/20 07:08:01;;;;;;;1.25;1.05;;;27.90;83.30;;;;;;5083243;28;20220;-83
2023/07/20 07:10:31;;;;;;;0.73;0.73;;;27.90;83.00;;;;;;5080311;28;20252;-83
2023/07/20 07:13:00;;;;;;;0.77;0.75;;;28.00;82.60;;;;;;5090891;28;20655;-83
2023/07/20 07:15:28;;;;;;;0.50;0.50;;;27.90;82.70;;;;;;5079624;28;20198;-82
2023/07/20 07:17:57;;;;;;;0.52;0.52;;;27.90;82.30;;;;;;5086726;28;20202;-82
2023/07/20 07:20:26;;;;;;;0.80;0.80;;;27.90;82.20;;;;;;5078887;28;20701;-83
2023/07/20 07:22:55;;;;;;;2.05;1.17;;;27.90;81.90;;;;;;5080650;28;20269;-84
2023/07/20 07:25:24;;;;;;;1.20;0.77;;;28.00;81.60;;;;;;5083257;28;20209;-84
2023/07/20 07:27:55;;;;;;;0.98;0.98;;;28.10;81.70;;;;;;5075074;28;20191;-83
2023/07/20 07:30:23;;;;;;;0.40;0.40;;;28.10;81.40;;;;;;5077477;28;20530;-83
2023/07/20 07:32:52;;;;;;;0.75;0.75;;;28.30;81.40;;;;;;5076181;28;20665;-84
2023/07/20 07:35:20;;;;;;;2.60;0.73;;;28.30;81.20;;;;;;5075780;28;20285;-85
2023/07/20 07:37:49;;;;;;;1.77;0.90;;;28.30;80.50;;;;;;5075688;28;20186;-83
2023/07/20 07:40:37;;;;;;;0.70;0.50;;;28.40;80.00;;;;;;5075047;28;20197;-83
2023/07/20 07:43:08;;;;;;;0.50;0.50;;;28.50;79.00;;;;;;5075065;28;20278;-82
2023/07/20 07:45:37;;;;;;;0.30;0.30;;;28.50;78.30;;;;;;5076271;28;20214;-82
2023/07/20 07:48:06;;;;;;;0.50;0.47;;;28.60;77.30;;;;;;5086318;28;20676;-86
2023/07/20 07:50:35;;;;;;;5.78;0.68;;;28.70;77.10;;;;;;5079953;28;20652;-81
2023/07/20 07:53:04;;;;;;;2.25;1.20;;;28.80;77.10;;;;;;5074628;28;20209;-84
2023/07/20 07:55:32;;;;;;;0.73;0.60;;;28.90;76.20;;;;;;5087082;28;20648;-83
2023/07/20 07:58:01;;;;;;;0.77;0.73;;;28.90;74.80;;;;;;5071888;28;20187;-83
2023/07/20 08:00:31;;;;;;;0.95;0.73;;;29.10;74.50;;;;;;5075517;28;20194;-84
2023/07/20 08:02:59;;;;;;;2.33;1.77;;;29.20;73.90;;;;;;5082824;28;20193;-83
2023/07/20 08:05:28;;;;;;;2.20;1.55;;;29.20;72.90;;;;;;5075025;28;20222;-83
2023/07/20 08:07:57;;;;;;;0.90;0.43;;;29.30;73.80;;;;;;5088003;28;20198;-84
2023/07/20 08:10:26;;;;;;;2.67;1.20;;;29.40;74.10;;;;;;5079328;28;20201;-85
2023/07/20 08:12:55;;;;;;;1.27;1.00;;;29.50;72.80;;;;;;5075520;28;20233;-83
2023/07/20 08:15:23;;;;;;;1.67;0.52;;;29.60;72.50;;;;;;5076289;28;20648;-84
2023/07/20 08:17:55;;;;;;;0.93;0.40;;;29.70;73.00;;;;;;5082730;28;20224;-84
2023/07/20 08:20:26;;;;;;;3.17;1.42;;;29.70;72.50;;;;;;5073549;28;20202;-83
2023/07/20 08:22:58;;;;;;;1.45;1.02;;;29.70;73.10;;;;;;5088721;28;20205;-83
2023/07/20 08:25:26;;;;;;;2.30;1.05;;;29.80;72.80;;;;;;5074477;28;20191;-83
2023/07/20 08:27:57;;;;;;;0.73;0.73;;;29.90;73.50;;;;;;5073074;28;20208;-83
2023/07/20 08:30:26;;;;;;;1.25;1.10;;;29.90;73.20;;;;;;5073217;28;20183;-85
2023/07/20 08:32:56;;;;;;;1.00;0.88;;;30.00;72.90;;;;;;5076921;28;20226;-84
2023/07/20 08:35:26;;;;;;;0.90;0.70;;;30.00;73.00;;;;;;5078826;28;20194;-84
2023/07/20 08:37:55;;;;;;;2.08;0.70;;;30.10;73.00;;;;;;5082457;28;20213;-82
2023/07/20 08:40:25;;;;;;;0.60;0.60;;;30.10;72.10;;;;;;5077572;28;20529;-84
2023/07/20 08:42:56;;;;;;;0.73;0.40;;;30.20;72.10;;;;;;5078249;28;20198;-84
2023/07/20 08:45:28;;;;;;;1.25;1.15;;;30.30;72.40;;;;;;5075001;28;20186;-84
2023/07/20 08:48:00;;;;;;;1.17;0.98;;;30.30;71.90;;;;;;5084029;28;20201;-83
2023/07/20 08:50:31;;;;;;;1.45;0.63;;;30.40;71.20;;;;;;5090393;28;20636;-81
2023/07/20 08:53:01;;;;;;;1.23;0.73;;;30.50;71.40;;;;;;5095453;28;20232;-84
2023/07/20 08:55:30;;;;;;;0.77;0.50;;;30.50;71.00;;;;;;5086665;28;20190;-85
2023/07/20 08:58:01;;;;;;;0.98;0.88;;;30.70;70.60;;;;;;5077852;28;20198;-84
2023/07/20 09:00:29;;;;;;;0.40;0.40;;;30.70;70.00;;;;;;5085962;28;20601;-84
2023/07/20 09:03:02;;;;;;;5.80;0.80;;;30.80;70.20;;;;;;5082979;28;20650;-83
2023/07/20 09:05:38;;;;;;;0.65;0.60;;;30.90;70.30;;;;;;5079545;28;20228;-89
2023/07/20 09:08:11;;;;;;;0.63;0.60;;;30.90;68.80;;;;;;5092095;28;20248;-83
2023/07/20 09:10:40;;;;;;;0.93;0.60;;;31.00;69.20;;;;;;5079089;28;20226;-84
2023/07/20 09:13:08;;;;;;;2.05;1.48;;;31.10;68.00;;;;;;5082076;28;20709;-83
2023/07/20 09:15:38;;;;;;;0.68;0.57;;;31.20;67.70;;;;;;5082050;28;20201;-85
2023/07/20 09:18:08;;;;;;;0.65;0.65;;;31.20;67.10;;;;;;5083187;28;20980;-83
2023/07/20 09:20:37;;;;;;;0.50;0.50;;;31.30;67.00;;;;;;5079020;28;20190;-84
2023/07/20 09:23:07;;;;;;;4.97;1.60;;;31.40;66.40;;;;;;5078606;28;20201;-82
2023/07/20 09:25:37;;;;;;;0.65;0.50;;;31.40;66.10;;;;;;5089604;28;20197;-83
2023/07/20 09:28:06;;;;;;;0.50;0.50;;;31.50;65.60;;;;;;5080721;28;20638;-85
2023/07/20 09:30:35;;;;;;;18.30;1.75;;;31.50;65.50;;;;;;5079319;28;20217;-85
2023/07/20 09:33:03;;;;;;;0.30;0.30;;;31.60;65.70;;;;;;5099597;28;20217;-84
2023/07/20 09:35:35;;;;;;;1.23;1.05;;;31.70;64.80;;;;;;5089749;28;20668;-85
2023/07/20 09:38:09;;;;;;;0.50;0.50;;;31.70;64.40;;;;;;5081980;28;20712;-84
2023/07/20 09:40:42;;;;;;;3.85;1.05;;;31.80;65.00;;;;;;5084375;28;20755;-84
2023/07/20 09:43:13;;;;;;;4.15;1.50;;;31.90;64.60;;;;;;5083753;28;20260;-86
2023/07/20 09:45:45;;;;;;;1.15;0.70;;;32.00;62.80;;;;;;5073185;28;20190;-87
2023/07/20 09:48:16;;;;;;;1.70;0.95;;;32.00;62.40;;;;;;5084335;28;20729;-87
2023/07/20 09:50:52;;;;;;;1.42;1.23;;;32.20;62.90;;;;;;5081066;28;20216;-83
2023/07/20 09:53:21;;;;;;;0.50;0.45;;;32.20;63.10;;;;;;5084116;28;20221;-82
2023/07/20 09:55:50;;;;;;;7.88;1.10;;;32.30;62.20;;;;;;5080462;28;20634;-85
2023/07/20 09:58:19;;;;;;;0.40;0.40;;;32.30;61.50;;;;;;5091480;28;20604;-86
2023/07/20 10:00:52;;;;;;;1.63;1.05;;;32.40;60.80;;;;;;5078689;28;20281;-85
2023/07/20 10:03:24;;;;;;;0.50;0.50;;;32.50;61.60;;;;;;5089287;28;20189;-85
2023/07/20 10:05:58;;;;;;;0.60;0.60;;;32.50;59.90;;;;;;5090929;28;20228;-84
2023/07/20 10:08:29;;;;;;;1.08;0.75;;;32.60;59.40;;;;;;5086080;28;20226;-85
2023/07/20 10:11:03;;;;;;;1.00;0.90;;;32.70;59.80;;;;;;5083612;28;20202;-87
2023/07/20 10:13:33;;;;;;;1.80;1.23;;;32.80;59.90;;;;;;5085339;28;20220;-90
2023/07/20 10:16:06;;;;;;;1.33;1.15;;;32.90;59.80;;;;;;5088957;28;20198;-87
2023/07/20 10:18:52;;;;;;;0.50;0.43;;;32.90;59.10;;;;;;5076240;28;20626;-91
2023/07/20 10:21:29;;;;;;;2.15;0.40;;;33.10;59.40;;;;;;5077588;28;20230;-89
2023/07/20 10:24:08;;;;;;;1.17;0.47;;;33.10;59.30;;;;;;5079208;28;20304;-90
2023/07/20 10:26:36;;;;;;;0.50;0.50;;;33.10;58.70;;;;;;5083123;27;20207;-90
2023/07/20 10:29:09;;;;;;;0.65;0.63;;;33.20;58.80;;;;;;5093763;28;20280;-90
2023/07/20 10:31:59;;;;;;;0.93;0.68;;;33.20;58.30;;;;;;5077298;28;20209;-90
2023/07/20 10:34:28;;;;;;;0.65;0.60;;;33.20;57.90;;;;;;5074203;28;20215;-92
2023/07/20 10:37:02;;;;;;;0.22;0.22;;;33.30;58.50;;;;;;5089845;28;20201;-93
2023/07/20 10:39:37;;;;;;;0.40;0.40;;;33.30;58.70;;;;;;5092717;28;20599;-91
2023/07/20 10:42:15;;;;;;;1.00;0.75;;;33.30;58.40;;;;;;5092259;28;20305;-89
2023/07/20 10:44:52;;;;;;;0.82;0.45;;;33.40;57.90;;;;;;5086339;28;20239;-90
2023/07/20 10:47:47;;;;;;;0.38;0.30;;;33.50;58.10;;;;;;5082183;28;20622;-90
2023/07/20 10:50:16;;;;;;;1.48;0.47;;;33.50;56.80;;;;;;5080540;28;20193;-89
2023/07/20 15:37:15;;;;;;;1.30;0.65;;;30.80;65.70;;;;;;931154;24;21590;-91
2023/07/20 15:39:49;;;;;;;0.88;0.75;;;30.70;66.30;;;;;;4763810;30;20217;-90
2023/07/20 15:42:18;;;;;;;0.35;0.35;;;30.70;66.70;;;;;;4763928;30;20194;-88
2023/07/20 15:45:06;;;;;;;0.60;0.60;;;30.60;66.40;;;;;;4772540;30;20207;-91
2023/07/20 15:47:35;;;;;;;0.57;0.45;;;30.60;67.10;;;;;;4768672;30;20217;-90
2023/07/20 15:50:04;;;;;;;1.13;0.38;;;30.50;67.70;;;;;;4772661;30;20370;-89
2023/07/20 15:52:35;;;;;;;1.33;1.23;;;30.50;67.70;;;;;;4772695;30;20263;-91
2023/07/20 15:55:05;;;;;;;1.52;1.13;;;30.40;67.70;;;;;;4769994;30;20236;-91
2023/07/20 15:57:34;;;;;;;0.60;0.60;;;30.40;67.90;;;;;;4774879;30;20212;-91
2023/07/20 16:00:08;;;;;;;3.20;1.42;;;30.40;67.90;;;;;;4753150;30;20655;-89
2023/07/20 16:02:38;;;;;;;0.38;0.38;;;30.50;68.00;;;;;;4780939;30;20204;-90
2023/07/20 16:05:08;;;;;;;1.15;1.05;;;30.50;68.10;;;;;;4767402;30;20223;-89
2023/07/20 16:07:44;;;;;;;0.47;0.47;;;30.60;68.30;;;;;;4774694;30;20266;-89
2023/07/20 16:10:13;;;;;;;0.85;0.65;;;30.60;68.50;;;;;;4770007;30;20204;-90
2023/07/20 16:12:42;;;;;;;1.70;1.33;;;30.60;68.80;;;;;;4768867;30;20534;-88
2023/07/20 16:15:12;;;;;;;0.80;0.80;;;30.60;69.40;;;;;;4775590;30;20241;-86
2023/07/20 16:20:35;;;;;;;1.77;0.60;;;30.40;70.50;;;;;;4761272;30;20231;-87
2023/07/20 16:23:06;;;;;;;0.50;0.50;;;30.40;71.30;;;;;;4769440;30;20206;-88
2023/07/20 16:25:34;;;;;;;0.30;0.30;;;30.30;71.40;;;;;;4768091;30;20660;-86
2023/07/20 16:28:03;;;;;;;0.50;0.50;;;30.20;71.00;;;;;;4763215;30;20210;-87
2023/07/20 16:30:32;;;;;;;0.30;0.30;;;30.20;71.90;;;;;;4768801;30;20255;-88
2023/07/20 16:33:01;;;;;;;0.95;0.70;;;30.10;72.30;;;;;;4776593;30;20677;-89
2023/07/20 16:35:30;;;;;;;1.02;0.80;;;30.00;72.50;;;;;;4768089;30;20225;-90
2023/07/20 16:38:02;;;;;;;0.25;0.22;;;29.90;73.30;;;;;;4777559;30;20231;-88
2023/07/20 16:40:37;;;;;;;1.90;1.15;;;29.90;73.60;;;;;;4795160;29;20212;-89
2023/07/20 16:43:09;;;;;;;0.65;0.65;;;29.80;72.60;;;;;;4787901;29;20202;-91
2023/07/20 16:45:38;;;;;;;1.73;1.38;;;29.80;72.70;;;;;;4794274;29;20236;-91
2023/07/20 16:48:07;;;;;;;1.38;0.88;;;29.70;73.20;;;;;;4787442;29;20244;-90
2023/07/20 16:50:45;;;;;;;0.30;0.30;;;29.70;73.50;;;;;;4788641;29;20301;-90
2023/07/20 16:53:13;;;;;;;0.30;0.30;;;29.70;73.20;;;;;;4788546;29;20209;-89
2023/07/20 16:55:45;;;;;;;0.40;0.40;;;29.70;73.30;;;;;;4787213;29;20224;-89
2023/07/20 16:58:14;;;;;;;3.40;0.68;;;29.60;73.60;;;;;;4793606;29;20650;-89
2023/07/20 17:00:43;;;;;;;0.77;0.55;;;29.60;73.80;;;;;;4796194;29;20205;-89
2023/07/20 17:03:11;;;;;;;0.60;0.50;;;29.60;74.30;;;;;;4787769;29;20219;-89
2023/07/20 17:05:43;;;;;;;0.70;0.68;;;29.50;74.90;;;;;;4779755;29;20220;-88
2023/07/20 17:08:12;;;;;;;0.88;0.82;;;29.40;75.10;;;;;;4788137;29;20208;-88
2023/07/20 17:10:43;;;;;;;0.45;0.45;;;29.40;75.20;;;;;;4785932;29;20232;-88
2023/07/20 17:13:13;;;;;;;2.63;1.35;;;29.40;75.10;;;;;;4775298;29;20212;-89
2023/07/20 17:15:42;;;;;;;0.40;0.40;;;29.30;74.80;;;;;;4785249;29;20259;-90
2023/07/20 17:18:11;;;;;;;2.15;0.40;;;29.30;74.50;;;;;;4788616;29;20303;-90
2023/07/20 17:20:40;;;;;;;0.32;0.30;;;29.30;75.30;;;;;;4787346;29;20292;-89
2023/07/20 17:23:11;;;;;;;0.30;0.30;;;29.30;75.10;;;;;;4786842;29;20209;-90
2023/07/20 17:25:45;;;;;;;0.55;0.43;;;29.20;74.90;;;;;;4787864;30;20239;-88
2023/07/20 17:28:17;;;;;;;0.45;0.30;;;29.20;74.70;;;;;;4785254;29;20296;-92
2023/07/20 17:30:58;;;;;;;1.10;0.57;;;29.20;74.70;;;;;;4789222;29;20201;-91
2023/07/20 17:33:27;;;;;;;0.47;0.47;;;29.10;74.70;;;;;;4783881;29;20839;-92
2023/07/20 17:36:19;;;;;;;0.52;0.47;;;29.10;74.40;;;;;;4787735;30;20250;-89
2023/07/20 17:42:08;;;;;;;1.98;1.23;;;29.00;73.70;;;;;;4785822;29;20200;-90
2023/07/20 17:44:46;;;;;;;0.70;0.70;;;29.00;73.90;;;;;;4789051;30;20261;-89
2023/07/20 17:50:33;;;;;;;0.60;0.55;;;29.00;73.40;;;;;;4756214;29;20576;-88
2023/07/20 18:06:56;;;;;;;;;;;;;;;;;;;;;
2023/07/20 18:20:36;;;;;;;0.28;0.28;;;28.80;71.80;;;;;;4793767;29;20694;-87
2023/07/20 18:23:06;;;;;;;0.38;0.38;;;28.80;71.60;;;;;;4799525;29;20237;-88